createdAt,value
2023-03-12T00:01:19.496Z,97466.38
2023-03-12T00:03:47.360Z,97471.16
2023-03-12T00:06:14.575Z,97470.48
2023-03-12T00:08:41.784Z,97475.77
2023-03-12T00:11:10.738Z,97475.73
2023-03-12T00:13:38.116Z,97473.48
2023-03-12T00:16:10.442Z,97475.46
2023-03-12T00:18:37.553Z,97477.50
2023-03-12T00:21:05.753Z,97475.63
2023-03-12T00:23:32.817Z,97480.02
2023-03-12T00:26:04.966Z,97481.71
2023-03-12T00:28:31.817Z,97479.84
2023-03-12T00:30:58.637Z,97479.69
2023-03-12T00:33:26.095Z,97481.39
2023-03-12T00:35:53.927Z,97487.50
2023-03-12T00:38:20.504Z,97491.06
2023-03-12T00:40:47.332Z,97487.16
2023-03-12T00:43:14.903Z,97490.06
2023-03-12T00:45:41.422Z,97489.40
2023-03-12T00:48:07.889Z,97497.06
2023-03-12T00:50:34.316Z,97495.39
2023-03-12T00:53:00.873Z,97497.23
2023-03-12T00:55:27.594Z,97501.17
2023-03-12T00:57:54.262Z,97506.32
2023-03-12T01:00:21.369Z,97506.34
2023-03-12T01:02:48.186Z,97508.89
2023-03-12T01:05:15.548Z,97512.30
2023-03-12T01:07:42.717Z,97515.77
2023-03-12T01:10:11.871Z,97518.38
2023-03-12T01:12:38.586Z,97517.92
2023-03-12T01:15:05.828Z,97517.98
2023-03-12T01:17:32.274Z,97517.02
2023-03-12T01:19:58.833Z,97518.94
2023-03-12T01:22:25.528Z,97520.88
2023-03-12T01:24:51.973Z,97522.16
2023-03-12T01:27:18.505Z,97524.27
2023-03-12T01:29:45.330Z,97526.55
2023-03-12T01:32:11.863Z,97526.57
2023-03-12T01:34:38.333Z,97530.65
2023-03-12T01:37:05.157Z,97529.79
2023-03-12T01:39:31.625Z,97532.31
2023-03-12T01:41:58.205Z,97537.73
2023-03-12T01:44:24.779Z,97543.17
2023-03-12T01:46:51.203Z,97548.96
2023-03-12T01:49:33.345Z,97555.66
2023-03-12T01:52:04.789Z,97559.63
2023-03-12T01:54:37.551Z,97562.91
2023-03-12T01:57:06.376Z,97572.19
2023-03-12T01:59:39.142Z,97576.88
2023-03-12T02:02:06.955Z,97579.14
2023-03-12T02:04:34.872Z,97583.73
2023-03-12T02:07:08.703Z,97576.95
2023-03-12T02:09:39.894Z,97578.31
2023-03-12T02:12:07.913Z,97582.31
2023-03-12T02:14:34.990Z,97586.42
2023-03-12T02:17:02.511Z,97591.41
2023-03-12T02:20:12.813Z,97590.29
2023-03-12T02:22:42.504Z,97589.52
2023-03-12T02:25:36.709Z,97594.81
2023-03-12T02:28:07.551Z,97597.03
2023-03-12T02:30:34.300Z,97600.77
2023-03-12T02:33:05.506Z,97602.46
2023-03-12T02:35:32.408Z,97606.88
2023-03-12T02:37:59.133Z,97607.73
2023-03-12T02:40:39.290Z,97611.14
2023-03-12T02:43:07.775Z,97611.48
2023-03-12T02:45:36.985Z,97619.12
2023-03-12T02:48:08.214Z,97615.91
2023-03-12T02:50:34.645Z,97620.97
2023-03-12T02:53:01.079Z,97619.98
2023-03-12T02:55:27.624Z,97624.80
2023-03-12T02:57:54.097Z,97626.25
2023-03-12T03:00:21.099Z,97623.64
2023-03-12T03:02:47.625Z,97628.68
2023-03-12T03:05:14.241Z,97631.05
2023-03-12T03:07:40.943Z,97633.73
2023-03-12T03:10:08.516Z,97637.73
2023-03-12T03:12:36.747Z,97644.79
2023-03-12T03:15:05.085Z,97641.92
2023-03-12T03:17:31.945Z,97648.49
2023-03-12T03:19:58.591Z,97652.98
2023-03-12T03:22:25.240Z,97657.33
2023-03-12T03:24:53.344Z,97658.81
2023-03-12T03:27:20.096Z,97655.04
2023-03-12T03:29:46.821Z,97659.27
2023-03-12T03:32:13.359Z,97667.34
2023-03-12T03:34:40.040Z,97667.05
2023-03-12T03:37:06.717Z,97669.77
2023-03-12T03:39:33.298Z,97669.25
2023-03-12T03:42:00.118Z,97675.55
2023-03-12T03:44:26.604Z,97677.30
2023-03-12T03:46:53.560Z,97683.76
2023-03-12T03:49:20.099Z,97681.41
2023-03-12T03:51:46.925Z,97682.48
2023-03-12T03:54:13.713Z,97682.86
2023-03-12T03:56:40.983Z,97684.27
2023-03-12T03:59:07.511Z,97683.89
2023-03-12T04:01:34.063Z,97685.48
2023-03-12T04:04:00.819Z,97688.48
2023-03-12T04:06:27.374Z,97682.79
2023-03-12T04:08:53.905Z,97687.27
2023-03-12T04:11:21.986Z,97691.08
2023-03-12T04:13:49.637Z,97693.30
2023-03-12T04:16:17.003Z,97693.95
2023-03-12T04:18:44.558Z,97695.80
2023-03-12T04:21:13.357Z,97695.66
2023-03-12T04:23:40.259Z,97699.09
2023-03-12T04:26:07.838Z,97701.36
2023-03-12T04:28:35.281Z,97707.85
2023-03-12T04:31:04.645Z,97709.41
2023-03-12T04:33:34.753Z,97715.40
2023-03-12T04:36:01.527Z,97712.38
2023-03-12T04:38:28.671Z,97722.61
2023-03-12T04:41:07.492Z,97725.67
2023-03-12T04:43:34.757Z,97727.21
2023-03-12T04:46:02.086Z,97727.77
2023-03-12T04:48:28.871Z,97732.48
2023-03-12T04:50:55.712Z,97728.92
2023-03-12T04:53:22.777Z,97735.70
2023-03-12T04:55:49.311Z,97733.98
2023-03-12T04:58:16.722Z,97739.07
2023-03-12T05:00:43.502Z,97740.77
2023-03-12T05:03:10.094Z,97749.94
2023-03-12T05:05:36.768Z,97749.39
2023-03-12T05:08:04.729Z,97748.97
2023-03-12T05:10:31.976Z,97754.29
2023-03-12T05:12:58.836Z,97754.19
2023-03-12T05:15:25.994Z,97756.55
2023-03-12T05:17:54.767Z,97760.30
2023-03-12T05:20:21.504Z,97759.80
2023-03-12T05:22:48.081Z,97764.02
2023-03-12T05:25:14.627Z,97765.16
2023-03-12T05:27:41.085Z,97767.78
2023-03-12T05:30:08.233Z,97769.83
2023-03-12T05:32:34.743Z,97769.50
2023-03-12T05:35:01.421Z,97769.27
2023-03-12T05:37:28.274Z,97769.68
2023-03-12T05:39:54.922Z,97774.55
2023-03-12T05:42:21.518Z,97778.99
2023-03-12T05:44:47.976Z,97788.59
2023-03-12T05:47:14.392Z,97788.66
2023-03-12T05:49:40.871Z,97795.63
2023-03-12T05:52:07.486Z,97792.20
2023-03-12T05:54:34.287Z,97794.16
2023-03-12T05:57:00.809Z,97791.23
2023-03-12T05:59:27.376Z,97791.92
2023-03-12T06:01:53.978Z,97793.91
2023-03-12T06:04:20.529Z,97798.48
2023-03-12T06:06:47.940Z,97801.67
2023-03-12T06:09:14.366Z,97803.66
2023-03-12T06:11:40.919Z,97807.82
2023-03-12T06:14:07.334Z,97809.90
2023-03-12T06:16:33.784Z,97814.01
2023-03-12T06:19:02.389Z,97814.85
2023-03-12T06:21:32.120Z,97819.31
2023-03-12T06:23:59.377Z,97817.17
2023-03-12T06:26:26.738Z,97818.89
2023-03-12T06:28:54.426Z,97827.11
2023-03-12T06:31:22.410Z,97830.38
2023-03-12T06:33:49.002Z,97825.64
2023-03-12T06:36:15.556Z,97830.72
2023-03-12T06:38:41.992Z,97830.52
2023-03-12T06:41:15.113Z,97832.61
2023-03-12T06:43:42.751Z,97832.00
2023-03-12T06:46:13.166Z,97831.30
2023-03-12T06:48:39.778Z,97830.04
2023-03-12T06:51:09.978Z,97832.47
2023-03-12T06:53:36.711Z,97834.57
2023-03-12T06:56:04.334Z,97836.33
2023-03-12T06:58:31.396Z,97845.86
2023-03-12T07:00:58.130Z,97847.24
2023-03-12T07:03:25.398Z,97850.16
2023-03-12T07:05:52.148Z,97851.44
2023-03-12T07:08:18.804Z,97852.31
2023-03-12T07:10:46.574Z,97854.83
2023-03-12T07:13:13.714Z,97859.40
2023-03-12T07:15:40.580Z,97863.87
2023-03-12T07:18:12.048Z,97862.95
2023-03-12T07:20:42.603Z,97863.20
2023-03-12T07:23:09.354Z,97866.75
2023-03-12T07:25:38.011Z,97869.67
2023-03-12T07:28:04.675Z,97872.40
2023-03-12T07:30:31.360Z,97880.91
2023-03-12T07:32:58.147Z,97878.77
2023-03-12T07:35:24.828Z,97876.25
2023-03-12T07:37:51.324Z,97878.70
2023-03-12T07:40:18.043Z,97876.89
2023-03-12T07:42:44.576Z,97875.59
2023-03-12T07:45:11.541Z,97878.95
2023-03-12T07:47:38.247Z,97877.02
2023-03-12T07:50:05.130Z,97876.39
2023-03-12T07:52:31.882Z,97879.67
2023-03-12T07:54:58.667Z,97880.09
2023-03-12T07:57:25.322Z,97873.73
2023-03-12T07:59:52.450Z,97879.05
2023-03-12T08:02:19.218Z,97878.27
2023-03-12T08:04:46.936Z,97880.91
2023-03-12T08:07:14.264Z,97879.66
2023-03-12T08:09:41.553Z,97880.92
2023-03-12T08:12:08.900Z,97880.82
2023-03-12T08:14:36.397Z,97877.86
2023-03-12T08:17:02.991Z,97879.79
2023-03-12T08:19:29.422Z,97877.95
2023-03-12T08:21:55.824Z,97877.73
2023-03-12T08:24:22.424Z,97876.76
2023-03-12T08:26:48.974Z,97881.13
2023-03-12T08:29:17.371Z,97883.35
2023-03-12T08:32:01.562Z,97886.42
2023-03-12T08:34:30.623Z,97888.48
2023-03-12T08:36:57.592Z,97894.29
2023-03-12T08:39:24.171Z,97893.64
2023-03-12T08:41:50.637Z,97896.88
2023-03-12T08:44:17.203Z,97895.73
2023-03-12T08:46:43.603Z,97893.67
2023-03-12T08:49:13.466Z,97889.26
2023-03-12T08:51:40.114Z,97892.83
2023-03-12T08:54:06.559Z,97900.23
2023-03-12T08:56:33.298Z,97901.80
2023-03-12T08:58:59.946Z,97901.55
2023-03-12T09:01:26.485Z,97899.42
2023-03-12T09:03:52.944Z,97896.67
2023-03-12T09:06:19.730Z,97894.55
2023-03-12T09:08:46.931Z,97893.96
2023-03-12T09:11:15.572Z,97887.02
2023-03-12T09:14:03.953Z,97886.19
2023-03-12T09:16:29.743Z,97882.48
2023-03-12T09:18:56.366Z,97889.01
2023-03-12T09:21:22.920Z,97890.21
2023-03-12T09:23:49.336Z,97889.36
2023-03-12T09:26:15.916Z,97887.79
2023-03-12T09:28:42.446Z,97886.33
2023-03-12T09:31:09.062Z,97881.94
2023-03-12T09:33:35.532Z,97877.77
2023-03-12T09:36:02.863Z,97876.59
2023-03-12T09:38:30.358Z,97874.54
2023-03-12T09:40:56.895Z,97883.85
2023-03-12T09:43:31.701Z,97885.64
2023-03-12T09:45:59.812Z,97898.65
2023-03-12T09:48:32.579Z,97893.05
2023-03-12T09:51:02.885Z,97899.45
2023-03-12T09:53:40.023Z,97895.69
2023-03-12T09:56:14.568Z,97894.77
2023-03-12T09:58:41.385Z,97893.76
2023-03-12T10:01:18.855Z,97889.36
2023-03-12T10:03:51.592Z,97889.25
2023-03-12T10:06:35.397Z,97892.98
2023-03-12T10:09:20.832Z,97890.73
2023-03-12T10:12:09.698Z,97887.42
2023-03-12T10:14:48.513Z,97885.39
2023-03-12T10:17:15.189Z,97889.58
2023-03-12T10:19:56.066Z,97889.88
2023-03-12T10:22:49.684Z,97889.66
2023-03-12T10:25:19.092Z,97881.96
2023-03-12T10:27:50.405Z,97880.91
2023-03-12T10:30:18.699Z,97879.20
2023-03-12T10:33:01.135Z,97880.55
2023-03-12T10:35:29.293Z,97874.71
2023-03-12T10:38:04.569Z,97872.81
2023-03-12T10:40:36.701Z,97871.58
2023-03-12T10:43:04.699Z,97871.98
2023-03-12T10:45:34.731Z,97874.75
2023-03-12T10:48:07.680Z,97871.38
2023-03-12T10:50:38.096Z,97875.29
2023-03-12T10:53:22.057Z,97864.54
2023-03-12T10:56:01.580Z,97868.70
2023-03-12T10:58:33.499Z,97865.63
2023-03-12T11:01:02.017Z,97861.41
2023-03-12T11:03:29.771Z,97862.86
2023-03-12T11:05:59.667Z,97862.35
2023-03-12T11:08:29.526Z,97860.23
2023-03-12T11:10:58.513Z,97856.15
2023-03-12T11:13:29.561Z,97859.61
2023-03-12T11:15:58.868Z,97860.23
2023-03-12T11:18:35.575Z,97860.10
2023-03-12T11:21:11.203Z,97854.25
2023-03-12T11:23:41.235Z,97851.90
2023-03-12T11:26:23.327Z,97856.92
2023-03-12T11:29:01.314Z,97859.16
2023-03-12T11:31:37.726Z,97859.41
2023-03-12T11:34:27.790Z,97858.87
2023-03-12T11:37:19.220Z,97856.81
2023-03-12T11:40:17.408Z,97857.95
2023-03-12T11:43:09.050Z,97854.69
2023-03-12T11:45:54.904Z,97851.28
2023-03-12T11:48:42.376Z,97852.00
2023-03-12T11:51:17.969Z,97853.77
2023-03-12T11:53:53.703Z,97861.01
2023-03-12T11:56:33.909Z,97859.79
2023-03-12T11:59:23.061Z,97864.36
2023-03-12T12:02:11.151Z,97862.31
2023-03-12T12:05:15.027Z,97864.55
2023-03-12T12:08:03.084Z,97861.59
2023-03-12T12:10:54.415Z,97860.15
2023-03-12T12:13:27.315Z,97865.23
2023-03-12T12:16:21.661Z,97871.04
2023-03-12T12:18:57.684Z,97864.89
2023-03-12T12:21:49.427Z,97869.30
2023-03-12T12:24:28.430Z,97867.26
2023-03-12T12:27:15.132Z,97869.48
2023-03-12T12:30:09.948Z,97870.20
2023-03-12T12:32:42.854Z,97868.80
2023-03-12T12:35:41.543Z,97872.45
2023-03-12T12:38:23.290Z,97869.75
2023-03-12T12:40:49.723Z,97864.48
2023-03-12T12:43:39.414Z,97860.55
2023-03-12T12:46:16.198Z,97862.80
2023-03-12T12:48:48.685Z,97863.03
2023-03-12T12:51:19.898Z,97868.75
2023-03-12T12:53:46.368Z,97866.94
2023-03-12T12:56:20.076Z,97864.60
2023-03-12T12:59:25.087Z,97860.99
2023-03-12T13:01:55.374Z,97857.17
2023-03-12T13:04:27.046Z,97862.88
2023-03-12T13:07:00.850Z,97863.14
2023-03-12T13:09:38.346Z,97864.16
2023-03-12T13:12:33.584Z,97866.65
2023-03-12T13:15:02.459Z,97866.99
2023-03-12T13:17:30.469Z,97867.50
2023-03-12T13:20:11.780Z,97870.52
2023-03-12T13:22:53.665Z,97873.90
2023-03-12T13:25:39.878Z,97868.47
2023-03-12T13:28:30.399Z,97869.48
2023-03-12T13:30:59.537Z,97872.69
2023-03-12T13:33:46.713Z,97870.89
2023-03-12T13:36:16.127Z,97870.31
2023-03-12T13:39:06.029Z,97874.70
2023-03-12T13:41:46.199Z,97874.41
2023-03-12T13:44:32.293Z,97874.23
2023-03-12T13:47:10.953Z,97872.77
2023-03-12T13:49:56.504Z,97878.60
2023-03-12T13:52:26.690Z,97881.09
2023-03-12T13:55:14.562Z,97885.11
2023-03-12T13:57:45.651Z,97882.67
2023-03-12T14:00:21.395Z,97880.30
2023-03-12T14:02:59.841Z,97878.40
2023-03-12T14:05:28.392Z,97872.17
2023-03-12T14:08:03.877Z,97866.66
2023-03-12T14:10:43.960Z,97864.25
2023-03-12T14:13:25.819Z,97865.45
2023-03-12T14:16:16.262Z,97863.48
2023-03-12T14:18:45.670Z,97866.08
2023-03-12T14:21:16.473Z,97871.23
2023-03-12T14:24:05.662Z,97874.95
2023-03-12T14:26:35.505Z,97871.58
2023-03-12T14:29:11.008Z,97868.54
2023-03-12T14:31:38.657Z,97866.27
2023-03-12T14:34:20.789Z,97861.17
2023-03-12T14:37:15.606Z,97855.96
2023-03-12T14:39:50.831Z,97859.46
2023-03-12T14:42:36.697Z,97854.73
2023-03-12T14:45:06.175Z,97853.75
2023-03-12T14:47:40.536Z,97855.60
2023-03-12T14:50:07.722Z,97858.99
2023-03-12T14:52:34.260Z,97863.48
2023-03-12T14:55:04.773Z,97867.38
2023-03-12T14:57:31.353Z,97865.98
2023-03-12T15:00:00.449Z,97863.89
2023-03-12T15:02:31.651Z,97869.98
2023-03-12T15:05:01.381Z,97874.81
2023-03-12T15:07:33.055Z,97873.48
2023-03-12T15:10:00.766Z,97868.66
2023-03-12T15:12:34.104Z,97877.56
2023-03-12T15:15:06.485Z,97876.27
2023-03-12T15:17:34.527Z,97873.11
2023-03-12T15:20:05.055Z,97872.75
2023-03-12T15:22:32.769Z,97879.85
2023-03-12T15:25:15.488Z,97881.29
2023-03-12T15:27:42.037Z,97888.36
2023-03-12T15:30:26.514Z,97894.73
2023-03-12T15:33:03.973Z,97902.95
2023-03-12T15:35:31.215Z,97903.18
2023-03-12T15:37:58.127Z,97903.05
2023-03-12T15:40:30.688Z,97910.73
2023-03-12T15:42:59.664Z,97915.30
2023-03-12T15:45:36.049Z,97919.67
2023-03-12T15:48:05.836Z,97918.73
2023-03-12T15:50:44.034Z,97921.13
2023-03-12T15:53:13.889Z,97923.14
2023-03-12T15:55:41.259Z,97924.83
2023-03-12T15:58:26.419Z,97926.02
2023-03-12T16:00:53.365Z,97927.27
2023-03-12T16:03:21.960Z,97927.27
2023-03-12T16:05:51.574Z,97925.45
2023-03-12T16:08:22.627Z,97926.27
2023-03-12T16:10:50.312Z,97932.91
2023-03-12T16:13:19.038Z,97938.23
2023-03-12T16:15:47.814Z,97940.95
2023-03-12T16:18:17.608Z,97936.57
2023-03-12T16:20:45.434Z,97929.74
2023-03-12T16:23:13.137Z,97927.98
2023-03-12T16:25:43.522Z,97931.61
2023-03-12T16:28:14.592Z,97944.25
2023-03-12T16:30:41.192Z,97942.42
2023-03-12T16:33:09.485Z,97944.91
2023-03-12T16:35:36.361Z,97944.47
2023-03-12T16:38:03.693Z,97941.31
2023-03-12T16:40:35.453Z,97940.36
2023-03-12T16:43:04.148Z,97930.29
2023-03-12T16:45:33.940Z,97931.44
2023-03-12T16:48:05.017Z,97936.14
2023-03-12T16:50:31.798Z,97942.39
2023-03-12T16:52:58.617Z,97945.92
2023-03-12T16:55:30.488Z,97955.66
2023-03-12T16:58:01.617Z,97962.70
2023-03-12T17:00:31.047Z,97967.91
2023-03-12T17:02:59.023Z,97975.22
2023-03-12T17:05:27.789Z,97977.02
2023-03-12T17:07:55.189Z,97975.24
2023-03-12T17:10:23.656Z,97978.54
2023-03-12T17:12:50.879Z,97980.23
2023-03-12T17:15:21.304Z,97982.49
2023-03-12T17:17:49.252Z,97982.60
2023-03-12T17:20:19.097Z,97985.73
2023-03-12T17:22:46.433Z,97988.87
2023-03-12T17:25:26.281Z,97984.60
2023-03-12T17:27:53.541Z,97988.52
2023-03-12T17:30:20.508Z,97991.38
2023-03-12T17:32:47.027Z,97990.73
2023-03-12T17:35:14.242Z,97988.06
2023-03-12T17:37:40.863Z,97991.64
2023-03-12T17:40:08.563Z,97989.20
2023-03-12T17:42:36.023Z,97994.32
2023-03-12T17:45:07.339Z,97996.36
2023-03-12T17:47:34.000Z,97997.02
2023-03-12T17:50:00.555Z,97998.02
2023-03-12T17:52:27.076Z,97994.77
2023-03-12T17:54:53.778Z,97997.98
2023-03-12T17:57:20.298Z,98000.86
2023-03-12T17:59:46.731Z,98002.80
2023-03-12T18:02:14.125Z,98001.87
2023-03-12T18:04:41.029Z,97998.75
2023-03-12T18:07:07.894Z,97997.48
2023-03-12T18:09:34.353Z,97995.89
2023-03-12T18:12:01.016Z,97994.33
2023-03-12T18:14:28.446Z,97987.59
2023-03-12T18:16:54.871Z,97982.40
2023-03-12T18:19:21.585Z,97980.76
2023-03-12T18:21:48.181Z,97976.34
2023-03-12T18:24:15.130Z,97970.06
2023-03-12T18:26:41.979Z,97975.30
2023-03-12T18:29:08.522Z,97979.19
2023-03-12T18:31:34.965Z,97980.37
2023-03-12T18:34:01.577Z,97981.20
2023-03-12T18:36:28.261Z,97980.13
2023-03-12T18:38:54.919Z,97980.79
2023-03-12T18:41:21.559Z,97979.53
2023-03-12T18:43:48.229Z,97978.08
2023-03-12T18:46:14.734Z,97982.27
2023-03-12T18:48:43.971Z,97986.77
2023-03-12T18:51:11.036Z,97990.69
2023-03-12T18:53:37.513Z,97994.83
2023-03-12T18:56:04.637Z,97995.33
2023-03-12T18:58:31.058Z,97999.25
2023-03-12T19:00:58.562Z,98003.42
2023-03-12T19:03:26.314Z,98003.14
2023-03-12T19:06:04.737Z,97999.30
2023-03-12T19:08:31.698Z,97996.55
2023-03-12T19:10:58.369Z,97995.13
2023-03-12T19:13:25.411Z,97992.86
2023-03-12T19:15:58.636Z,97996.04
2023-03-12T19:18:25.342Z,97994.44
2023-03-12T19:20:51.796Z,97991.46
2023-03-12T19:23:18.572Z,97991.89
2023-03-12T19:25:45.292Z,97994.36
2023-03-12T19:28:11.929Z,97995.88
2023-03-12T19:30:38.488Z,98002.52
2023-03-12T19:33:05.144Z,97999.75
2023-03-12T19:35:32.060Z,98000.34
2023-03-12T19:37:58.738Z,97999.04
2023-03-12T19:40:26.072Z,98002.01
2023-03-12T19:42:52.543Z,98012.48
2023-03-12T19:45:19.091Z,98019.36
2023-03-12T19:47:45.718Z,98020.61
2023-03-12T19:50:12.585Z,98020.98
2023-03-12T19:52:39.229Z,98023.18
2023-03-12T19:55:05.983Z,98024.20
2023-03-12T19:57:33.988Z,98037.50
2023-03-12T20:00:00.711Z,98046.73
2023-03-12T20:02:27.545Z,98049.61
2023-03-12T20:04:54.475Z,98044.81
2023-03-12T20:07:21.060Z,98036.23
2023-03-12T20:09:47.531Z,98027.73
2023-03-12T20:12:14.059Z,98022.98
2023-03-12T20:14:42.760Z,98026.93
2023-03-12T20:17:10.031Z,98023.88
2023-03-12T20:19:36.665Z,98018.96
2023-03-12T20:22:03.392Z,98020.34
2023-03-12T20:24:30.127Z,98024.81
2023-03-12T20:26:56.889Z,98023.83
2023-03-12T20:29:24.048Z,98028.83
2023-03-12T20:31:51.019Z,98026.36
2023-03-12T20:34:19.087Z,98029.19
2023-03-12T20:36:45.632Z,98023.98
2023-03-12T20:39:12.201Z,98021.48
2023-03-12T20:41:39.150Z,98022.85
2023-03-12T20:44:05.607Z,98014.46
2023-03-12T20:46:32.344Z,98015.98
2023-03-12T20:48:58.981Z,98021.08
2023-03-12T20:51:25.775Z,98022.40
2023-03-12T20:53:52.478Z,98017.60
2023-03-12T20:56:19.029Z,98008.56
2023-03-12T20:58:45.549Z,98013.83
2023-03-12T21:01:12.104Z,98023.14
2023-03-12T21:03:38.584Z,98025.19
2023-03-12T21:06:05.719Z,98028.27
2023-03-12T21:08:36.496Z,98018.14
2023-03-12T21:11:07.418Z,98013.19
2023-03-12T21:13:34.473Z,98015.23
2023-03-12T21:16:00.906Z,98010.56
2023-03-12T21:18:27.561Z,98004.67
2023-03-12T21:20:54.453Z,97999.16
2023-03-12T21:23:21.493Z,97993.52
2023-03-12T21:25:48.124Z,97986.85
2023-03-12T21:28:15.100Z,97980.86
2023-03-12T21:30:41.544Z,97980.32
2023-03-12T21:33:08.154Z,97978.92
2023-03-12T21:35:34.628Z,97980.14
2023-03-12T21:38:01.234Z,97977.28
2023-03-12T21:40:27.989Z,97972.23
2023-03-12T21:42:54.529Z,97965.46
2023-03-12T21:45:20.933Z,97961.55
2023-03-12T21:47:47.437Z,97956.05
2023-03-12T21:50:13.967Z,97948.28
2023-03-12T21:52:43.368Z,97939.02
2023-03-12T21:55:11.048Z,97935.77
2023-03-12T21:57:37.595Z,97944.93
2023-03-12T22:00:05.150Z,97942.48
2023-03-12T22:02:32.176Z,97933.56
2023-03-12T22:04:59.597Z,97937.99
2023-03-12T22:07:26.133Z,97930.94
2023-03-12T22:09:52.732Z,97933.13
2023-03-12T22:12:19.153Z,97936.34
2023-03-12T22:14:45.722Z,97932.30
2023-03-12T22:17:12.202Z,97925.91
2023-03-12T22:19:40.379Z,97926.92
2023-03-12T22:22:09.097Z,97929.39
2023-03-12T22:24:35.588Z,97919.75
2023-03-12T22:27:02.210Z,97919.91
2023-03-12T22:29:29.250Z,97920.35
2023-03-12T22:31:55.993Z,97917.86
2023-03-12T22:34:22.527Z,97920.51
2023-03-12T22:36:49.078Z,97916.12
2023-03-12T22:39:18.607Z,97906.29
2023-03-12T22:41:49.450Z,97910.68
2023-03-12T22:44:16.271Z,97913.66
2023-03-12T22:46:42.958Z,97919.19
2023-03-12T22:49:09.528Z,97920.62
2023-03-12T22:51:36.029Z,97924.38
2023-03-12T22:54:02.626Z,97918.64
2023-03-12T22:56:29.442Z,97915.87
2023-03-12T22:58:55.972Z,97915.06
2023-03-12T23:01:23.745Z,97919.39
2023-03-12T23:03:50.713Z,97925.08
2023-03-12T23:06:26.303Z,97910.25
2023-03-12T23:08:54.138Z,97916.86
2023-03-12T23:11:20.829Z,97912.87
2023-03-12T23:13:47.791Z,97910.92
2023-03-12T23:16:18.189Z,97915.99
2023-03-12T23:18:45.739Z,97914.44
2023-03-12T23:21:21.188Z,97918.58
2023-03-12T23:23:48.436Z,97920.11
2023-03-12T23:26:18.346Z,97922.64
2023-03-12T23:28:44.996Z,97921.59
2023-03-12T23:31:11.550Z,97920.05
2023-03-12T23:33:38.305Z,97916.59
2023-03-12T23:36:14.494Z,97911.08
2023-03-12T23:38:41.005Z,97910.48
2023-03-12T23:41:15.172Z,97908.17
2023-03-12T23:43:42.129Z,97910.67
2023-03-12T23:46:10.468Z,97914.37
2023-03-12T23:48:38.597Z,97905.42
2023-03-12T23:51:16.113Z,97902.29
2023-03-12T23:53:44.841Z,97902.56
2023-03-12T23:56:17.664Z,97914.16
2023-03-12T23:58:44.539Z,97906.92
